createdAt,value
2023-05-24T00:00:48.856Z,45.40
2023-05-24T00:01:48.856Z,45.36
2023-05-24T00:02:48.931Z,45.34
2023-05-24T00:03:48.920Z,45.34
2023-05-24T00:04:48.853Z,45.39
2023-05-24T00:05:48.824Z,45.32
2023-05-24T00:06:48.797Z,45.29
2023-05-24T00:07:48.800Z,45.37
2023-05-24T00:08:48.780Z,45.33
2023-05-24T00:09:48.773Z,45.37
2023-05-24T00:10:48.766Z,45.36
2023-05-24T00:11:48.788Z,45.34
2023-05-24T00:12:48.744Z,45.33
2023-05-24T00:13:48.735Z,45.29
2023-05-24T00:14:48.724Z,45.30
2023-05-24T00:15:48.711Z,45.32
2023-05-24T00:16:48.721Z,45.36
2023-05-24T00:17:48.718Z,45.32
2023-05-24T00:18:48.688Z,45.36
2023-05-24T00:19:48.784Z,45.27
2023-05-24T00:20:48.748Z,45.29
2023-05-24T00:21:48.639Z,45.32
2023-05-24T00:22:48.619Z,45.34
2023-05-24T00:23:48.606Z,45.35
2023-05-24T00:24:48.609Z,45.38
2023-05-24T00:25:48.604Z,45.36
2023-05-24T00:26:48.640Z,45.40
2023-05-24T00:27:48.659Z,45.37
2023-05-24T00:28:48.672Z,45.31
2023-05-24T00:29:48.699Z,45.34
2023-05-24T00:30:48.728Z,45.34
2023-05-24T00:31:48.790Z,45.33
2023-05-24T00:32:48.811Z,45.32
2023-05-24T00:33:48.808Z,45.25
2023-05-24T00:34:48.819Z,45.32
2023-05-24T00:35:48.848Z,45.32
2023-05-24T00:36:48.872Z,45.29
2023-05-24T00:37:48.904Z,45.27
2023-05-24T00:38:48.921Z,45.36
2023-05-24T00:39:48.953Z,45.32
2023-05-24T00:40:48.970Z,45.28
2023-05-24T00:41:48.988Z,45.31
2023-05-24T00:42:49.030Z,45.33
2023-05-24T00:43:49.041Z,45.28
2023-05-24T00:44:49.079Z,45.29
2023-05-24T00:45:49.141Z,45.29
2023-05-24T00:46:49.117Z,45.32
2023-05-24T00:47:49.185Z,45.29
2023-05-24T00:48:49.219Z,45.32
2023-05-24T00:49:49.188Z,45.27
2023-05-24T00:50:49.223Z,45.27
2023-05-24T00:51:49.235Z,45.29
2023-05-24T00:52:49.266Z,45.27
2023-05-24T00:53:49.286Z,45.29
2023-05-24T00:54:49.323Z,45.27
2023-05-24T00:55:49.350Z,45.23
2023-05-24T00:56:49.363Z,45.23
2023-05-24T00:57:49.395Z,45.25
2023-05-24T00:58:49.421Z,45.28
2023-05-24T00:59:49.443Z,45.21
2023-05-24T01:00:49.487Z,45.28
2023-05-24T01:01:49.603Z,45.24
2023-05-24T01:02:49.673Z,45.24
2023-05-24T01:03:49.601Z,45.23
2023-05-24T01:04:49.625Z,45.20
2023-05-24T01:05:49.611Z,45.21
2023-05-24T01:06:49.638Z,45.23
2023-05-24T01:07:49.664Z,45.25
2023-05-24T01:08:49.685Z,45.28
2023-05-24T01:09:49.716Z,45.23
2023-05-24T01:10:49.749Z,45.26
2023-05-24T01:11:49.775Z,45.33
2023-05-24T01:12:49.808Z,45.25
2023-05-24T01:13:49.815Z,45.23
2023-05-24T01:14:49.840Z,45.25
2023-05-24T01:15:49.892Z,45.24
2023-05-24T01:16:49.892Z,45.30
2023-05-24T01:17:49.950Z,45.24
2023-05-24T01:18:49.930Z,45.21
2023-05-24T01:19:50.079Z,45.22
2023-05-24T01:20:50.026Z,45.21
2023-05-24T01:21:50.028Z,45.27
2023-05-24T01:22:50.025Z,45.27
2023-05-24T01:23:50.024Z,45.27
2023-05-24T01:24:50.047Z,45.25
2023-05-24T01:25:50.080Z,45.24
2023-05-24T01:26:50.098Z,45.23
2023-05-24T01:27:50.115Z,45.27
2023-05-24T01:28:50.157Z,45.24
2023-05-24T01:29:50.195Z,45.25
2023-05-24T01:30:50.212Z,45.23
2023-05-24T01:31:50.313Z,45.25
2023-05-24T01:32:50.297Z,45.21
2023-05-24T01:33:50.319Z,45.24
2023-05-24T01:34:50.331Z,45.22
2023-05-24T01:35:50.388Z,45.18
2023-05-24T01:36:50.385Z,45.20
2023-05-24T01:37:50.406Z,45.24
2023-05-24T01:38:50.432Z,45.20
2023-05-24T01:39:50.461Z,45.20
2023-05-24T01:40:50.612Z,45.23
2023-05-24T01:41:50.531Z,45.21
2023-05-24T01:42:50.556Z,45.21
2023-05-24T01:43:50.569Z,45.17
2023-05-24T01:44:50.596Z,45.20
2023-05-24T01:45:50.621Z,45.22
2023-05-24T01:46:50.676Z,45.23
2023-05-24T01:47:50.680Z,45.21
2023-05-24T01:48:50.694Z,45.17
2023-05-24T01:49:50.720Z,45.21
2023-05-24T01:50:50.799Z,45.21
2023-05-24T01:51:50.805Z,45.20
2023-05-24T01:52:50.782Z,45.20
2023-05-24T01:53:50.820Z,45.18
2023-05-24T01:54:50.858Z,45.20
2023-05-24T01:55:50.901Z,45.18
2023-05-24T01:56:50.894Z,45.19
2023-05-24T01:57:50.927Z,45.17
2023-05-24T01:58:50.942Z,45.14
2023-05-24T01:59:50.973Z,45.17
2023-05-24T02:00:51.036Z,45.20
2023-05-24T02:01:51.060Z,45.20
2023-05-24T02:02:51.162Z,45.17
2023-05-24T02:03:51.083Z,45.21
2023-05-24T02:04:51.103Z,45.17
2023-05-24T02:05:51.139Z,45.17
2023-05-24T02:06:51.158Z,45.20
2023-05-24T02:07:51.185Z,45.13
2023-05-24T02:08:51.207Z,45.14
2023-05-24T02:09:51.226Z,45.14
2023-05-24T02:10:51.255Z,45.14
2023-05-24T02:11:51.274Z,45.13
2023-05-24T02:12:51.310Z,45.20
2023-05-24T02:13:51.368Z,45.17
2023-05-24T02:14:51.368Z,45.16
2023-05-24T02:15:51.381Z,45.21
2023-05-24T02:16:51.427Z,45.14
2023-05-24T02:17:51.457Z,45.17
2023-05-24T02:18:51.462Z,45.13
2023-05-24T02:19:51.506Z,45.14
2023-05-24T02:20:51.529Z,45.13
2023-05-24T02:21:51.538Z,45.14
2023-05-24T02:22:51.555Z,45.13
2023-05-24T02:23:51.570Z,45.14
2023-05-24T02:24:51.594Z,45.16
2023-05-24T02:25:51.627Z,45.14
2023-05-24T02:26:51.657Z,45.16
2023-05-24T02:27:51.667Z,45.13
2023-05-24T02:28:51.718Z,45.13
2023-05-24T02:29:51.718Z,45.14
2023-05-24T02:30:51.817Z,45.13
2023-05-24T02:31:51.758Z,45.12
2023-05-24T02:32:51.836Z,45.13
2023-05-24T02:33:51.822Z,45.15
2023-05-24T02:34:51.858Z,45.12
2023-05-24T02:35:51.867Z,45.13
2023-05-24T02:36:51.913Z,45.13
2023-05-24T02:37:51.940Z,45.12
2023-05-24T02:38:51.958Z,45.10
2023-05-24T02:39:51.989Z,45.13
2023-05-24T02:40:52.001Z,45.13
2023-05-24T02:41:52.032Z,45.14
2023-05-24T02:42:52.075Z,45.13
2023-05-24T02:43:52.096Z,45.12
2023-05-24T02:44:52.121Z,45.14
2023-05-24T02:45:52.271Z,45.09
2023-05-24T02:46:52.183Z,45.12
2023-05-24T02:47:52.252Z,45.11
2023-05-24T02:48:52.256Z,45.13
2023-05-24T02:49:52.281Z,45.06
2023-05-24T02:50:52.305Z,45.09
2023-05-24T02:51:52.338Z,45.13
2023-05-24T02:52:52.353Z,45.06
2023-05-24T02:53:52.370Z,45.09
2023-05-24T02:54:52.416Z,45.12
2023-05-24T02:55:52.446Z,45.05
2023-05-24T02:56:52.452Z,45.13
2023-05-24T02:57:52.480Z,45.12
2023-05-24T02:58:52.510Z,45.09
2023-05-24T02:59:52.526Z,45.09
2023-05-24T03:00:52.561Z,45.07
2023-05-24T03:01:52.656Z,45.07
2023-05-24T03:02:52.790Z,45.07
2023-05-24T03:03:52.776Z,45.06
2023-05-24T03:04:52.685Z,45.13
2023-05-24T03:05:52.715Z,45.09
2023-05-24T03:06:52.737Z,45.09
2023-05-24T03:07:52.760Z,45.05
2023-05-24T03:08:52.792Z,45.02
2023-05-24T03:09:52.818Z,45.10
2023-05-24T03:10:52.847Z,45.06
2023-05-24T03:11:52.893Z,45.06
2023-05-24T03:12:52.898Z,45.09
2023-05-24T03:13:52.932Z,45.09
2023-05-24T03:14:53.013Z,45.10
2023-05-24T03:15:53.028Z,45.06
2023-05-24T03:16:53.031Z,45.07
2023-05-24T03:17:53.088Z,45.06
2023-05-24T03:18:53.073Z,45.04
2023-05-24T03:19:53.146Z,45.05
2023-05-24T03:20:53.139Z,45.06
2023-05-24T03:21:53.150Z,45.04
2023-05-24T03:22:53.196Z,45.01
2023-05-24T03:23:53.214Z,45.05
2023-05-24T03:24:53.234Z,45.05
2023-05-24T03:25:53.262Z,45.05
2023-05-24T03:26:53.290Z,45.04
2023-05-24T03:27:53.321Z,45.05
2023-05-24T03:28:53.344Z,45.01
2023-05-24T03:29:53.363Z,45.05
2023-05-24T03:30:53.416Z,45.03
2023-05-24T03:31:53.467Z,45.02
2023-05-24T03:32:53.536Z,45.01
2023-05-24T03:33:53.485Z,45.01
2023-05-24T03:34:53.504Z,45.01
2023-05-24T03:35:53.520Z,45.00
2023-05-24T03:36:53.553Z,44.97
2023-05-24T03:37:53.575Z,44.99
2023-05-24T03:38:53.599Z,45.01
2023-05-24T03:39:53.623Z,45.02
2023-05-24T03:40:53.644Z,45.03
2023-05-24T03:41:53.681Z,45.01
2023-05-24T03:42:53.695Z,45.04
2023-05-24T03:43:53.723Z,45.04
2023-05-24T03:44:53.768Z,45.01
2023-05-24T03:45:53.949Z,44.97
2023-05-24T03:46:53.802Z,45.02
2023-05-24T03:47:53.841Z,45.00
2023-05-24T03:48:53.843Z,45.00
2023-05-24T03:49:53.872Z,45.00
2023-05-24T03:50:53.900Z,45.00
2023-05-24T03:51:53.932Z,45.01
2023-05-24T03:52:53.956Z,45.00
2023-05-24T03:53:53.974Z,45.01
2023-05-24T03:54:54.005Z,45.00
2023-05-24T03:55:54.028Z,45.01
2023-05-24T03:56:54.049Z,44.99
2023-05-24T03:57:54.070Z,45.00
2023-05-24T03:58:54.116Z,45.01
2023-05-24T03:59:54.125Z,45.00
2023-05-24T04:00:54.170Z,44.98
2023-05-24T04:01:54.194Z,45.01
2023-05-24T04:02:54.321Z,44.97
2023-05-24T04:03:54.258Z,44.99
2023-05-24T04:04:54.258Z,45.00
2023-05-24T04:05:54.284Z,45.00
2023-05-24T04:06:54.302Z,44.93
2023-05-24T04:07:54.355Z,44.97
2023-05-24T04:08:54.348Z,44.98
2023-05-24T04:09:54.392Z,45.00
2023-05-24T04:10:54.414Z,44.97
2023-05-24T04:11:54.431Z,45.00
2023-05-24T04:12:54.450Z,44.95
2023-05-24T04:13:54.468Z,44.98
2023-05-24T04:14:54.502Z,44.96
2023-05-24T04:15:54.524Z,44.97
2023-05-24T04:16:54.597Z,45.00
2023-05-24T04:17:54.631Z,44.93
2023-05-24T04:18:54.736Z,44.96
2023-05-24T04:19:54.691Z,44.96
2023-05-24T04:20:54.660Z,44.96
2023-05-24T04:21:54.668Z,44.92
2023-05-24T04:22:54.713Z,44.93
2023-05-24T04:23:54.726Z,44.93
2023-05-24T04:24:54.805Z,44.97
2023-05-24T04:25:54.778Z,44.93
2023-05-24T04:26:54.813Z,44.91
2023-05-24T04:27:54.834Z,44.94
2023-05-24T04:28:54.848Z,44.93
2023-05-24T04:29:54.869Z,44.97
2023-05-24T04:30:54.926Z,44.92
2023-05-24T04:31:54.919Z,45.00
2023-05-24T04:32:55.036Z,44.92
2023-05-24T04:33:54.968Z,44.93
2023-05-24T04:34:54.994Z,44.89
2023-05-24T04:35:55.023Z,44.89
2023-05-24T04:36:55.036Z,44.96
2023-05-24T04:37:55.060Z,44.92
2023-05-24T04:38:55.085Z,44.90
2023-05-24T04:39:55.113Z,44.96
2023-05-24T04:40:55.155Z,44.93
2023-05-24T04:41:55.184Z,44.96
2023-05-24T04:42:55.189Z,44.96
2023-05-24T04:43:55.211Z,44.94
2023-05-24T04:44:55.240Z,44.90
2023-05-24T04:45:55.266Z,44.94
2023-05-24T04:46:55.319Z,44.91
2023-05-24T04:47:55.343Z,44.92
2023-05-24T04:48:55.343Z,44.92
2023-05-24T04:49:55.374Z,44.94
2023-05-24T04:50:55.405Z,44.91
2023-05-24T04:51:55.518Z,44.96
2023-05-24T04:52:55.441Z,44.94
2023-05-24T04:53:55.458Z,44.91
2023-05-24T04:54:55.493Z,44.90
2023-05-24T04:55:55.517Z,44.88
2023-05-24T04:56:55.540Z,44.89
2023-05-24T04:57:55.574Z,44.93
2023-05-24T04:58:55.590Z,44.83
2023-05-24T04:59:55.618Z,44.89
2023-05-24T05:00:55.834Z,44.94
2023-05-24T05:01:55.725Z,44.97
2023-05-24T05:02:55.776Z,44.86
2023-05-24T05:03:55.753Z,44.87
2023-05-24T05:04:55.758Z,45.05
2023-05-24T05:05:55.799Z,44.97
2023-05-24T05:06:55.841Z,44.95
2023-05-24T05:07:55.875Z,44.98
2023-05-24T05:08:56.040Z,45.29
2023-05-24T05:09:55.955Z,45.36
2023-05-24T05:10:55.994Z,45.43
2023-05-24T05:11:56.041Z,45.68
2023-05-24T05:12:56.076Z,45.50
2023-05-24T05:13:56.127Z,45.44
2023-05-24T05:14:56.183Z,45.72
2023-05-24T05:15:56.241Z,45.73
2023-05-24T05:16:56.488Z,46.38
2023-05-24T05:17:56.405Z,46.49
2023-05-24T05:18:56.376Z,46.45
2023-05-24T05:19:56.466Z,46.53
2023-05-24T05:20:56.490Z,46.67
2023-05-24T05:21:56.524Z,47.16
2023-05-24T05:22:56.559Z,47.44
2023-05-24T05:23:56.538Z,47.34
2023-05-24T05:24:56.554Z,47.25
2023-05-24T05:25:56.570Z,47.35
2023-05-24T05:26:56.576Z,47.74
2023-05-24T05:27:56.608Z,48.11
2023-05-24T05:28:56.650Z,47.80
2023-05-24T05:29:56.700Z,47.69
2023-05-24T05:30:56.759Z,48.07
2023-05-24T05:31:56.874Z,48.15
2023-05-24T05:32:56.905Z,48.12
2023-05-24T05:33:56.912Z,48.14
2023-05-24T05:34:56.970Z,48.27
2023-05-24T05:35:57.015Z,48.44
2023-05-24T05:36:57.055Z,48.73
2023-05-24T05:37:57.056Z,48.69
2023-05-24T05:38:57.064Z,48.91
2023-05-24T05:39:57.056Z,49.18
2023-05-24T05:40:57.071Z,49.07
2023-05-24T05:41:57.184Z,49.02
2023-05-24T05:42:57.131Z,49.01
2023-05-24T05:43:57.107Z,49.10
2023-05-24T05:44:57.140Z,49.27
2023-05-24T05:45:57.186Z,49.35
2023-05-24T05:46:57.200Z,49.29
2023-05-24T05:47:57.274Z,49.22
2023-05-24T05:48:57.268Z,49.27
2023-05-24T05:49:57.299Z,49.39
2023-05-24T05:50:57.351Z,49.48
2023-05-24T05:51:57.393Z,49.41
2023-05-24T05:52:57.437Z,49.37
2023-05-24T05:53:57.491Z,49.30
2023-05-24T05:54:57.535Z,49.40
2023-05-24T05:55:57.592Z,49.28
2023-05-24T05:56:58.567Z,49.30
2023-05-24T05:57:57.687Z,49.24
2023-05-24T05:58:57.735Z,49.45
2023-05-24T05:59:57.772Z,49.62
2023-05-24T06:00:57.809Z,49.62
2023-05-24T06:01:57.850Z,49.58
2023-05-24T06:02:58.017Z,49.66
2023-05-24T06:03:58.125Z,49.70
2023-05-24T06:04:58.168Z,49.84
2023-05-24T06:05:58.024Z,49.70
2023-05-24T06:06:58.037Z,49.65
2023-05-24T06:07:58.052Z,49.27
2023-05-24T06:08:58.077Z,49.16
2023-05-24T06:09:58.064Z,49.00
2023-05-24T06:10:58.107Z,48.84
2023-05-24T06:11:58.138Z,48.71
2023-05-24T06:12:58.857Z,48.58
2023-05-24T06:13:58.365Z,48.42
2023-05-24T06:14:58.409Z,48.32
2023-05-24T06:15:58.514Z,48.21
2023-05-24T06:17:00.306Z,48.19
2023-05-24T06:17:58.563Z,48.12
2023-05-24T06:19:06.036Z,48.79
2023-05-24T06:19:59.564Z,48.92
2023-05-24T06:20:58.562Z,48.84
2023-05-24T06:21:58.578Z,48.49
2023-05-24T06:22:58.517Z,48.42
2023-05-24T06:23:58.497Z,48.18
2023-05-24T06:24:58.493Z,48.71
2023-05-24T06:25:58.480Z,48.90
2023-05-24T06:26:58.461Z,49.29
2023-05-24T06:27:58.442Z,49.13
2023-05-24T06:28:58.449Z,49.40
2023-05-24T06:29:58.522Z,49.24
2023-05-24T06:30:58.555Z,49.23
2023-05-24T06:31:58.577Z,49.36
2023-05-24T06:32:58.629Z,49.34
2023-05-24T06:34:58.560Z,48.83
2023-05-24T06:35:58.572Z,48.78
2023-05-24T06:36:58.560Z,48.75
2023-05-24T06:37:58.555Z,48.92
2023-05-24T06:38:58.541Z,49.01
2023-05-24T06:39:58.549Z,49.11
2023-05-24T06:40:58.526Z,49.32
2023-05-24T06:41:58.544Z,49.51
2023-05-24T06:42:58.533Z,49.60
2023-05-24T06:43:58.549Z,49.51
2023-05-24T06:44:58.544Z,49.55
2023-05-24T06:45:58.530Z,49.59
2023-05-24T06:46:58.586Z,49.65
2023-05-24T06:47:58.601Z,49.78
2023-05-24T06:48:58.613Z,49.69
2023-05-24T06:49:58.507Z,49.90
2023-05-24T06:50:58.506Z,49.98
2023-05-24T06:51:58.496Z,50.04
2023-05-24T06:52:58.495Z,50.12
2023-05-24T06:53:58.490Z,49.89
2023-05-24T06:54:58.484Z,49.86
2023-05-24T06:55:58.481Z,49.89
2023-05-24T06:56:58.468Z,49.93
2023-05-24T06:57:58.485Z,49.92
2023-05-24T06:58:58.486Z,49.87
2023-05-24T06:59:58.476Z,49.93
2023-05-24T07:00:59.535Z,49.86
2023-05-24T07:02:00.627Z,49.93
2023-05-24T07:02:58.510Z,49.93
2023-05-24T07:03:58.482Z,49.98
2023-05-24T07:04:58.542Z,49.96
2023-05-24T07:05:58.481Z,49.76
2023-05-24T07:06:58.673Z,49.67
2023-05-24T07:07:58.479Z,49.51
2023-05-24T07:08:58.478Z,49.46
2023-05-24T07:09:58.463Z,49.39
2023-05-24T07:10:58.483Z,49.32
2023-05-24T07:11:58.467Z,49.22
2023-05-24T07:12:58.448Z,49.14
2023-05-24T07:13:58.438Z,49.30
2023-05-24T07:14:58.431Z,49.38
2023-05-24T07:15:58.404Z,49.23
2023-05-24T07:16:59.471Z,49.49
2023-05-24T07:17:58.422Z,49.56
2023-05-24T07:18:58.456Z,49.88
2023-05-24T07:19:59.322Z,50.36
2023-05-24T07:20:58.423Z,50.43
2023-05-24T07:21:58.422Z,50.35
2023-05-24T07:22:58.422Z,50.10
2023-05-24T07:23:58.417Z,49.71
2023-05-24T07:24:58.417Z,49.32
2023-05-24T07:25:58.416Z,49.19
2023-05-24T07:26:58.401Z,48.82
2023-05-24T07:27:58.383Z,49.17
2023-05-24T07:28:58.369Z,49.39
2023-05-24T07:29:58.363Z,49.91
2023-05-24T07:30:58.352Z,50.02
2023-05-24T07:31:58.410Z,50.06
2023-05-24T07:32:58.365Z,50.22
2023-05-24T07:33:58.313Z,50.22
2023-05-24T07:34:58.309Z,50.21
2023-05-24T07:35:58.306Z,50.25
2023-05-24T07:36:58.300Z,50.15
2023-05-24T07:37:58.346Z,50.04
2023-05-24T07:38:58.326Z,48.96
2023-05-24T07:39:58.350Z,49.12
2023-05-24T07:40:58.310Z,49.11
2023-05-24T07:41:58.310Z,49.04
2023-05-24T07:42:58.281Z,49.03
2023-05-24T07:43:58.268Z,48.92
2023-05-24T07:44:58.260Z,48.90
2023-05-24T07:45:58.250Z,48.74
2023-05-24T07:46:58.281Z,48.75
2023-05-24T07:47:58.330Z,48.54
2023-05-24T07:48:58.331Z,48.72
2023-05-24T07:49:58.333Z,48.67
2023-05-24T07:50:58.396Z,48.58
2023-05-24T07:51:58.410Z,48.61
2023-05-24T07:52:58.462Z,48.63
2023-05-24T07:53:58.494Z,48.60
2023-05-24T07:54:58.526Z,48.60
2023-05-24T07:55:58.576Z,48.40
2023-05-24T07:56:58.646Z,48.51
2023-05-24T07:57:58.667Z,48.57
2023-05-24T07:58:59.716Z,48.60
2023-05-24T07:59:58.732Z,48.42
2023-05-24T08:00:58.780Z,48.47
2023-05-24T08:01:58.815Z,48.46
2023-05-24T08:02:58.887Z,48.41
2023-05-24T08:03:58.964Z,48.55
2023-05-24T08:04:58.903Z,48.48
2023-05-24T08:05:58.952Z,48.40
2023-05-24T08:06:59.064Z,48.47
2023-05-24T08:07:59.046Z,48.46
2023-05-24T08:08:59.117Z,48.44
2023-05-24T08:09:59.117Z,48.39
2023-05-24T08:10:59.168Z,48.51
2023-05-24T08:11:59.214Z,49.21
2023-05-24T08:12:59.193Z,48.67
2023-05-24T08:13:59.192Z,49.30
2023-05-24T08:14:59.840Z,49.84
2023-05-24T08:15:59.283Z,49.90
2023-05-24T08:16:59.247Z,50.13
2023-05-24T08:17:59.276Z,50.61
2023-05-24T08:18:59.329Z,51.02
2023-05-24T08:19:59.397Z,50.86
2023-05-24T08:20:59.421Z,50.57
2023-05-24T08:21:59.471Z,49.91
2023-05-24T08:22:59.555Z,50.47
2023-05-24T08:23:59.523Z,50.64
2023-05-24T08:24:59.552Z,50.82
2023-05-24T08:25:59.615Z,50.60
2023-05-24T08:26:59.652Z,50.53
2023-05-24T08:27:59.701Z,50.42
2023-05-24T08:28:59.694Z,50.54
2023-05-24T08:29:59.742Z,50.52
2023-05-24T08:30:59.817Z,50.42
2023-05-24T08:31:59.907Z,50.04
2023-05-24T08:32:59.896Z,49.89
2023-05-24T08:33:59.922Z,49.40
2023-05-24T08:35:14.903Z,49.41
2023-05-24T08:36:00.922Z,49.09
2023-05-24T08:36:59.916Z,48.95
2023-05-24T08:37:59.878Z,48.84
2023-05-24T08:38:59.865Z,48.84
2023-05-24T08:39:59.835Z,48.84
2023-05-24T08:40:59.814Z,48.89
2023-05-24T08:42:59.783Z,48.68
2023-05-24T08:43:59.768Z,48.58
2023-05-24T08:44:59.746Z,48.94
2023-05-24T08:45:59.767Z,48.90
2023-05-24T08:46:59.699Z,48.78
2023-05-24T08:47:59.783Z,48.70
2023-05-24T08:49:00.475Z,48.56
2023-05-24T08:49:59.657Z,48.56
2023-05-24T08:50:59.650Z,48.53
2023-05-24T08:51:59.630Z,48.63
2023-05-24T08:52:59.586Z,48.55
2023-05-24T08:53:59.570Z,48.53
2023-05-24T08:54:59.541Z,48.49
2023-05-24T08:55:59.534Z,48.35
2023-05-24T08:56:59.516Z,48.27
2023-05-24T08:57:59.490Z,48.39
2023-05-24T08:58:59.468Z,48.33
2023-05-24T08:59:59.471Z,48.46
2023-05-24T09:01:00.456Z,48.36
2023-05-24T09:01:59.426Z,48.34
2023-05-24T09:02:59.433Z,48.45
2023-05-24T09:03:59.447Z,48.31
2023-05-24T09:04:59.366Z,48.24
2023-05-24T09:05:59.342Z,48.17
2023-05-24T09:06:59.324Z,48.19
2023-05-24T09:07:59.303Z,48.41
2023-05-24T09:08:59.293Z,48.38
2023-05-24T09:09:59.263Z,48.33
2023-05-24T09:10:59.446Z,48.22
2023-05-24T09:11:59.267Z,48.52
2023-05-24T09:12:59.202Z,48.58
2023-05-24T09:13:59.176Z,48.41
2023-05-24T09:14:59.142Z,48.42
2023-05-24T09:15:59.160Z,49.01
2023-05-24T09:16:59.109Z,50.35
2023-05-24T09:17:59.153Z,50.94
2023-05-24T09:18:59.078Z,52.01
2023-05-24T09:19:59.123Z,51.77
2023-05-24T09:20:59.113Z,52.78
2023-05-24T09:21:59.091Z,51.27
2023-05-24T09:22:59.064Z,52.00
2023-05-24T09:23:59.061Z,52.25
2023-05-24T09:24:59.118Z,51.45
2023-05-24T09:25:59.169Z,50.80
2023-05-24T09:26:59.146Z,50.84
2023-05-24T09:27:59.129Z,50.16
2023-05-24T09:28:59.107Z,50.15
2023-05-24T09:29:59.087Z,49.69
2023-05-24T09:30:59.103Z,49.58
2023-05-24T09:31:59.173Z,49.61
2023-05-24T09:32:59.150Z,49.53
2023-05-24T09:33:59.020Z,49.55
2023-05-24T09:34:59.054Z,49.56
2023-05-24T09:35:59.033Z,49.69
2023-05-24T09:36:59.074Z,49.61
2023-05-24T09:37:59.108Z,49.73
2023-05-24T09:38:59.142Z,49.59
2023-05-24T09:39:59.121Z,49.59
2023-05-24T09:40:59.118Z,49.56
2023-05-24T09:41:59.075Z,49.84
2023-05-24T09:42:59.070Z,49.82
2023-05-24T09:43:59.034Z,49.76
2023-05-24T09:44:59.020Z,49.68
2023-05-24T09:45:58.987Z,49.64
2023-05-24T09:46:59.036Z,49.55
2023-05-24T09:47:59.546Z,49.54
2023-05-24T09:48:58.926Z,49.60
2023-05-24T09:49:58.927Z,49.60
2023-05-24T09:50:58.953Z,49.59
2023-05-24T09:51:59.002Z,49.57
2023-05-24T09:52:59.005Z,49.57
2023-05-24T09:53:59.066Z,49.46
2023-05-24T09:54:59.077Z,49.62
2023-05-24T09:55:59.092Z,49.56
2023-05-24T09:56:59.233Z,49.97
2023-05-24T09:57:59.167Z,50.00
2023-05-24T09:58:59.226Z,50.31
2023-05-24T09:59:59.243Z,50.17
2023-05-24T10:00:59.307Z,49.71
2023-05-24T10:01:59.341Z,49.51
2023-05-24T10:02:59.406Z,49.39
2023-05-24T10:03:59.513Z,49.66
2023-05-24T10:04:59.532Z,49.69
2023-05-24T10:05:59.506Z,49.52
2023-05-24T10:06:59.559Z,49.39
2023-05-24T10:07:59.590Z,50.48
2023-05-24T10:08:59.588Z,50.65
2023-05-24T10:09:59.599Z,50.17
2023-05-24T10:10:59.602Z,50.25
2023-05-24T10:11:59.618Z,50.92
2023-05-24T10:12:59.615Z,51.17
2023-05-24T10:13:59.609Z,51.26
2023-05-24T10:14:59.656Z,51.69
2023-05-24T10:15:59.662Z,51.17
2023-05-24T10:16:59.701Z,50.96
2023-05-24T10:17:59.742Z,50.50
2023-05-24T10:18:59.741Z,50.55
2023-05-24T10:19:59.807Z,50.19
2023-05-24T10:20:59.959Z,49.94
2023-05-24T10:21:59.891Z,50.01
2023-05-24T10:22:59.929Z,49.60
2023-05-24T10:24:00.048Z,49.40
2023-05-24T10:25:00.069Z,49.11
2023-05-24T10:26:00.086Z,49.15
2023-05-24T10:27:00.141Z,48.82
2023-05-24T10:28:00.179Z,48.90
2023-05-24T10:29:00.982Z,48.77
2023-05-24T10:30:00.287Z,48.89
2023-05-24T10:31:00.409Z,48.81
2023-05-24T10:32:00.347Z,48.80
2023-05-24T10:33:00.415Z,49.06
2023-05-24T10:34:07.276Z,49.02
2023-05-24T10:35:01.436Z,49.01
2023-05-24T10:36:00.420Z,49.03
2023-05-24T10:37:00.411Z,49.02
2023-05-24T10:38:00.397Z,49.01
2023-05-24T10:39:00.384Z,49.07
2023-05-24T10:40:00.398Z,49.02
2023-05-24T10:41:00.359Z,49.46
2023-05-24T10:42:00.332Z,49.29
2023-05-24T10:43:00.333Z,49.06
2023-05-24T10:44:08.775Z,49.22
2023-05-24T10:45:02.014Z,49.27
2023-05-24T10:46:00.441Z,49.32
2023-05-24T10:47:00.341Z,49.40
2023-05-24T10:48:00.437Z,49.27
2023-05-24T10:49:00.319Z,49.30
2023-05-24T10:50:00.456Z,49.37
2023-05-24T10:51:00.281Z,49.20
2023-05-24T10:52:00.276Z,49.07
2023-05-24T10:53:00.294Z,49.05
2023-05-24T10:54:00.328Z,49.01
2023-05-24T10:55:04.487Z,48.88
2023-05-24T10:56:00.403Z,49.07
2023-05-24T10:57:00.295Z,48.86
2023-05-24T10:58:00.278Z,48.80
2023-05-24T10:59:00.297Z,48.79
2023-05-24T11:00:00.270Z,48.81
2023-05-24T11:01:00.395Z,48.71
2023-05-24T11:02:00.290Z,48.66
2023-05-24T11:03:00.264Z,48.57
2023-05-24T11:04:00.208Z,48.55
2023-05-24T11:05:00.269Z,49.80
2023-05-24T11:06:00.385Z,49.39
2023-05-24T11:07:00.201Z,49.55
2023-05-24T11:08:00.220Z,49.56
2023-05-24T11:09:00.200Z,49.93
2023-05-24T11:10:00.235Z,49.19
2023-05-24T11:11:08.465Z,48.50
2023-05-24T11:12:01.142Z,48.62
2023-05-24T11:13:00.163Z,48.64
2023-05-24T11:14:00.139Z,48.65
2023-05-24T11:15:00.067Z,47.83
2023-05-24T11:16:00.098Z,48.48
2023-05-24T11:17:00.039Z,48.36
2023-05-24T11:18:00.065Z,47.86
2023-05-24T11:19:00.010Z,48.18
2023-05-24T11:20:00.016Z,48.13
2023-05-24T11:20:59.984Z,47.98
2023-05-24T11:22:00.040Z,48.00
2023-05-24T11:23:00.061Z,48.17
2023-05-24T11:24:00.164Z,48.20
2023-05-24T11:25:00.243Z,48.24
2023-05-24T11:26:00.208Z,48.07
2023-05-24T11:27:00.273Z,48.19
2023-05-24T11:28:00.353Z,48.10
2023-05-24T11:29:02.530Z,48.11
2023-05-24T11:30:00.357Z,48.27
2023-05-24T11:31:00.347Z,48.61
2023-05-24T11:32:00.327Z,48.55
2023-05-24T11:33:00.374Z,48.34
2023-05-24T11:34:00.300Z,48.41
2023-05-24T11:35:00.283Z,48.39
2023-05-24T11:36:00.259Z,48.54
2023-05-24T11:37:00.292Z,48.43
2023-05-24T11:38:00.239Z,48.33
2023-05-24T11:39:00.221Z,48.22
2023-05-24T11:40:00.199Z,48.53
2023-05-24T11:41:00.174Z,48.46
2023-05-24T11:42:00.278Z,48.47
2023-05-24T11:43:00.169Z,48.47
2023-05-24T11:44:00.142Z,48.33
2023-05-24T11:45:00.141Z,48.30
2023-05-24T11:46:00.643Z,48.19
2023-05-24T11:47:00.135Z,48.37
2023-05-24T11:48:00.170Z,48.38
2023-05-24T11:49:00.067Z,48.37
2023-05-24T11:50:00.072Z,48.33
2023-05-24T11:51:00.076Z,48.55
2023-05-24T11:52:00.031Z,48.47
2023-05-24T11:53:00.021Z,48.57
2023-05-24T11:54:00.005Z,48.57
2023-05-24T11:54:59.988Z,48.55
2023-05-24T11:56:00.041Z,48.61
2023-05-24T11:57:00.079Z,48.82
2023-05-24T11:58:00.163Z,48.77
2023-05-24T11:59:00.216Z,48.79
2023-05-24T12:00:00.243Z,48.79
2023-05-24T12:01:00.234Z,48.81
2023-05-24T12:02:00.433Z,48.75
2023-05-24T12:03:00.426Z,48.88
2023-05-24T12:04:00.449Z,48.70
2023-05-24T12:05:00.628Z,48.95
2023-05-24T12:06:00.459Z,48.93
2023-05-24T12:07:00.493Z,48.77
2023-05-24T12:08:00.534Z,48.74
2023-05-24T12:09:00.572Z,48.66
2023-05-24T12:10:00.629Z,48.64
2023-05-24T12:11:00.664Z,48.62
2023-05-24T12:12:00.713Z,49.06
2023-05-24T12:13:00.759Z,49.29
2023-05-24T12:14:00.796Z,49.23
2023-05-24T12:15:00.860Z,49.24
2023-05-24T12:16:00.927Z,48.76
2023-05-24T12:17:01.029Z,48.76
2023-05-24T12:18:01.109Z,49.43
2023-05-24T12:19:07.064Z,49.41
2023-05-24T12:20:02.061Z,49.36
2023-05-24T12:21:01.020Z,49.28
2023-05-24T12:22:01.029Z,49.25
2023-05-24T12:23:01.024Z,49.15
2023-05-24T12:24:00.966Z,48.96
2023-05-24T12:25:00.961Z,48.80
2023-05-24T12:26:01.050Z,48.64
2023-05-24T12:27:00.913Z,48.40
2023-05-24T12:28:00.974Z,48.44
2023-05-24T12:29:00.926Z,48.42
2023-05-24T12:30:00.994Z,48.43
2023-05-24T12:31:01.056Z,48.39
2023-05-24T12:32:01.061Z,48.65
2023-05-24T12:33:01.109Z,48.68
2023-05-24T12:34:01.101Z,48.65
2023-05-24T12:35:01.157Z,48.69
2023-05-24T12:36:01.177Z,48.52
2023-05-24T12:37:01.320Z,48.43
2023-05-24T12:38:01.256Z,48.49
2023-05-24T12:39:01.288Z,48.38
2023-05-24T12:40:01.328Z,48.37
2023-05-24T12:41:11.413Z,48.31
2023-05-24T12:42:02.344Z,48.33
2023-05-24T12:43:01.313Z,48.39
2023-05-24T12:44:01.300Z,48.30
2023-05-24T12:45:01.307Z,48.33
2023-05-24T12:46:01.277Z,48.57
2023-05-24T12:47:01.317Z,48.35
2023-05-24T12:48:01.300Z,48.40
2023-05-24T12:49:01.211Z,48.35
2023-05-24T12:50:01.190Z,48.98
2023-05-24T12:51:01.173Z,49.74
2023-05-24T12:52:01.164Z,49.54
2023-05-24T12:53:01.149Z,49.66
2023-05-24T12:54:01.175Z,49.51
2023-05-24T12:55:01.197Z,49.46